Time;durP1;ratioP1;P1;durP2;ratioP2;P2;SDS_P1;SDS_P2;PMS_P1;PMS_P2;Temp;Humidity;BMP_temperature;BMP_pressure;BME280_temperature;BME280_humidity;BME280_pressure;Samples;Min_cycle;Max_cycle;Signal;HPM_P1;HPM_P2
2022/06/10 00:02:08;;;;;;;29.92;4.82;;;13.10;83.10;;;;;;4950737;29;20047;-79
2022/06/10 00:04:36;;;;;;;26.38;3.95;;;13.00;83.10;;;;;;4946170;29;20059;-80
2022/06/10 00:07:06;;;;;;;27.15;4.35;;;13.00;83.10;;;;;;4950784;29;20047;-80
2022/06/10 00:09:35;;;;;;;22.00;4.20;;;12.90;83.10;;;;;;4947974;29;20059;-79
2022/06/10 00:12:10;;;;;;;22.45;4.13;;;12.90;83.00;;;;;;4935499;29;20055;-79
2022/06/10 00:14:39;;;;;;;26.65;4.03;;;12.90;82.90;;;;;;4940285;29;20067;-79
2022/06/10 00:17:08;;;;;;;26.25;3.95;;;12.80;82.80;;;;;;4949346;29;20424;-79
2022/06/10 00:19:38;;;;;;;31.00;4.35;;;12.80;82.70;;;;;;4950828;29;20490;-79
2022/06/10 00:22:06;;;;;;;26.60;4.22;;;12.80;82.70;;;;;;4951858;29;20054;-79
2022/06/10 00:24:34;;;;;;;28.52;4.82;;;12.70;82.80;;;;;;4930657;29;20055;-78
2022/06/10 00:27:03;;;;;;;27.80;4.93;;;12.70;82.90;;;;;;4948142;29;20047;-79
2022/06/10 00:29:31;;;;;;;26.33;4.03;;;12.60;83.10;;;;;;4934327;29;20043;-78
2022/06/10 00:31:59;;;;;;;34.25;4.57;;;12.50;83.20;;;;;;4952586;28;20400;-78
2022/06/10 00:34:27;;;;;;;28.60;5.15;;;12.50;83.30;;;;;;4956017;28;20051;-78
2022/06/10 00:36:55;;;;;;;22.17;4.15;;;12.40;83.50;;;;;;4952076;29;20050;-79
2022/06/10 00:39:23;;;;;;;25.63;4.35;;;12.40;83.90;;;;;;4954513;29;20051;-78
2022/06/10 00:41:51;;;;;;;28.23;4.03;;;12.40;84.00;;;;;;4956597;29;20073;-78
2022/06/10 00:44:45;;;;;;;26.08;4.50;;;12.50;84.10;;;;;;4956727;29;20066;-77
2022/06/10 00:47:19;;;;;;;21.30;3.65;;;12.50;84.00;;;;;;4948629;29;20098;-78
2022/06/10 00:49:52;;;;;;;30.20;4.40;;;12.40;83.90;;;;;;4949938;29;20051;-78
2022/06/10 00:52:32;;;;;;;26.30;4.53;;;12.40;84.00;;;;;;4949785;29;20039;-78
2022/06/10 00:55:01;;;;;;;33.58;4.75;;;12.40;84.00;;;;;;4946686;29;20063;-78
2022/06/10 00:57:43;;;;;;;32.30;4.50;;;12.30;84.10;;;;;;4948442;29;20056;-78
2022/06/10 01:00:17;;;;;;;30.63;4.68;;;12.30;84.30;;;;;;4952874;29;20055;-79
2022/06/10 01:02:45;;;;;;;26.08;4.22;;;12.30;84.20;;;;;;4943026;29;20424;-78
2022/06/10 01:05:17;;;;;;;26.85;4.47;;;12.30;84.20;;;;;;4954924;29;20047;-78
2022/06/10 01:07:54;;;;;;;26.77;4.67;;;12.20;84.20;;;;;;4954628;29;20043;-78
2022/06/10 01:10:23;;;;;;;28.85;4.25;;;12.20;84.20;;;;;;4954002;29;20133;-78
2022/06/10 01:13:15;;;;;;;32.28;4.85;;;12.20;84.30;;;;;;4955634;29;20291;-78
2022/06/10 01:15:55;;;;;;;28.83;4.55;;;12.20;84.60;;;;;;4951042;29;20400;-78
2022/06/10 01:18:54;;;;;;;27.77;3.92;;;12.10;84.60;;;;;;4948525;29;20058;-78
2022/06/10 01:22:10;;;;;;;29.58;4.32;;;12.10;84.70;;;;;;4942938;29;20043;-78
2022/06/10 01:24:43;;;;;;;25.63;4.25;;;12.00;84.60;;;;;;4950782;28;20536;-79
2022/06/10 01:27:50;;;;;;;29.10;4.30;;;11.90;84.70;;;;;;4951158;29;20074;-78
2022/06/10 01:30:23;;;;;;;31.67;4.88;;;11.90;85.00;;;;;;4949748;29;20084;-78
2022/06/10 01:32:54;;;;;;;;;;;11.80;85.10;;;;;;4950670;29;20039;-78
2022/06/10 01:35:29;;;;;;;28.70;4.53;;;11.80;85.20;;;;;;4955148;29;20298;-77
2022/06/10 01:38:15;;;;;;;35.05;4.88;;;11.80;85.50;;;;;;4954930;29;20050;-78
2022/06/10 01:40:53;;;;;;;29.65;4.05;;;11.80;85.60;;;;;;4953964;29;20050;-78
2022/06/10 01:43:39;;;;;;;31.52;4.35;;;11.80;85.60;;;;;;4943469;28;20055;-78
2022/06/10 01:46:20;;;;;;;22.10;4.70;;;11.80;85.70;;;;;;4951149;29;20054;-77
2022/06/10 01:49:12;;;;;;;27.35;4.85;;;11.70;85.70;;;;;;4953964;29;20043;-78
2022/06/10 01:52:09;;;;;;;32.83;4.75;;;11.70;85.90;;;;;;4955994;29;20046;-79
2022/06/10 01:55:03;;;;;;;26.77;4.65;;;11.70;85.90;;;;;;4953907;29;20070;-78
2022/06/10 01:57:31;;;;;;;;;;;11.70;85.90;;;;;;4953540;29;20051;-79
2022/06/10 02:00:13;;;;;;;31.00;4.38;;;11.70;86.00;;;;;;4949548;29;20408;-79
2022/06/10 02:02:47;;;;;;;28.08;4.80;;;11.70;85.90;;;;;;4951486;29;20043;-78
2022/06/10 02:05:21;;;;;;;32.78;4.25;;;11.60;86.00;;;;;;4945201;29;20051;-79
2022/06/10 02:08:11;;;;;;;30.98;4.45;;;11.60;86.10;;;;;;4936735;29;20047;-78
2022/06/10 02:10:54;;;;;;;33.33;5.28;;;11.50;86.10;;;;;;4944686;29;20400;-79
2022/06/10 02:13:27;;;;;;;37.88;5.75;;;11.50;86.10;;;;;;4946823;29;20058;-78
2022/06/10 02:16:00;;;;;;;40.75;5.22;;;11.40;86.20;;;;;;4953328;28;20405;-79
2022/06/10 02:18:38;;;;;;;39.58;5.03;;;11.30;86.40;;;;;;4948651;29;20051;-78
2022/06/10 02:21:13;;;;;;;30.77;4.95;;;11.30;86.50;;;;;;4948050;29;20055;-78
2022/06/10 02:23:47;;;;;;;38.92;4.93;;;11.20;86.60;;;;;;4952084;29;20128;-79
2022/06/10 02:26:17;;;;;;;35.47;5.88;;;11.20;86.80;;;;;;4944555;29;20647;-79
2022/06/10 02:28:52;;;;;;;35.58;5.15;;;11.10;86.90;;;;;;4947892;29;20040;-78
2022/06/10 02:31:32;;;;;;;30.55;4.28;;;11.00;86.90;;;;;;4951287;29;20055;-79
2022/06/10 02:34:01;;;;;;;35.83;5.47;;;11.00;87.10;;;;;;4951276;29;20046;-78
2022/06/10 02:36:35;;;;;;;34.20;4.82;;;10.90;87.20;;;;;;4949325;29;20501;-78
2022/06/10 02:39:18;;;;;;;35.58;5.28;;;10.90;87.50;;;;;;4950825;29;20055;-78
2022/06/10 02:42:18;;;;;;;32.78;4.80;;;10.80;87.50;;;;;;4952844;29;20047;-79
2022/06/10 02:45:01;;;;;;;39.55;4.75;;;10.80;87.60;;;;;;4950959;29;20396;-79
2022/06/10 02:47:56;;;;;;;34.50;5.13;;;10.80;87.70;;;;;;4952321;29;20047;-78
2022/06/10 02:50:23;;;;;;;43.63;5.38;;;10.70;87.80;;;;;;4956215;29;20043;-78
2022/06/10 02:52:52;;;;;;;26.50;4.63;;;10.70;87.80;;;;;;4944522;28;20048;-78
2022/06/10 02:55:24;;;;;;;39.25;6.30;;;10.60;87.90;;;;;;4947697;28;20058;-78
2022/06/10 03:01:20;;;;;;;39.33;7.05;;;10.50;88.00;;;;;;4953387;29;20434;-79
2022/06/10 03:04:07;;;;;;;33.30;5.10;;;10.40;88.10;;;;;;4953374;29;20058;-79
2022/06/10 03:07:10;;;;;;;37.83;5.07;;;10.40;88.10;;;;;;4943739;29;20404;-79
2022/06/10 03:10:21;;;;;;;44.10;6.53;;;10.30;88.20;;;;;;4954323;29;20416;-78
2022/06/10 03:12:57;;;;;;;33.15;5.97;;;10.20;88.30;;;;;;4952290;29;20297;-78
2022/06/10 03:15:43;;;;;;;36.47;5.32;;;10.10;88.30;;;;;;4942062;29;20055;-78
2022/06/10 03:18:25;;;;;;;44.25;6.10;;;10.00;88.40;;;;;;4951201;29;20432;-78
2022/06/10 03:21:16;;;;;;;42.42;6.03;;;9.90;88.50;;;;;;4944963;29;20044;-78
2022/06/10 03:23:53;;;;;;;43.22;5.40;;;9.90;88.80;;;;;;4949828;29;20448;-78
2022/06/10 03:26:50;;;;;;;37.25;5.47;;;9.90;89.00;;;;;;4949945;29;20485;-78
2022/06/10 03:29:51;;;;;;;46.15;5.50;;;10.00;89.20;;;;;;4940137;29;20420;-79
2022/06/10 03:32:31;;;;;;;42.97;6.07;;;10.00;89.30;;;;;;4953705;29;20048;-79
2022/06/10 03:35:06;;;;;;;36.38;5.70;;;10.10;89.30;;;;;;4943732;29;20052;-79
2022/06/10 03:37:37;;;;;;;41.65;6.22;;;10.20;89.40;;;;;;4943612;29;20051;-79
2022/06/10 03:40:05;;;;;;;34.83;5.32;;;10.30;89.40;;;;;;4952830;29;20050;-79
2022/06/10 03:42:33;;;;;;;44.47;6.22;;;10.50;89.40;;;;;;4939459;29;20058;-78
2022/06/10 03:45:01;;;;;;;46.42;6.63;;;10.60;89.40;;;;;;4953082;28;20055;-79
2022/06/10 03:47:33;;;;;;;36.78;5.88;;;10.70;89.20;;;;;;4952510;28;20058;-79
2022/06/10 03:50:09;;;;;;;40.45;5.78;;;10.80;89.10;;;;;;4947102;29;20054;-79
2022/06/10 03:52:39;;;;;;;42.33;6.60;;;10.80;89.10;;;;;;4946613;29;20047;-79
2022/06/10 03:55:09;;;;;;;37.17;6.10;;;10.90;89.00;;;;;;4948903;29;20499;-78
2022/06/10 03:57:37;;;;;;;35.28;5.63;;;11.00;88.90;;;;;;4951654;29;20059;-79
2022/06/10 04:00:06;;;;;;;37.50;5.90;;;11.00;88.90;;;;;;4951834;29;20058;-79
2022/06/10 04:02:39;;;;;;;49.28;6.25;;;11.20;88.80;;;;;;4944456;29;20052;-78
2022/06/10 04:05:08;;;;;;;41.42;5.65;;;11.20;88.70;;;;;;4951878;29;20401;-78
2022/06/10 04:07:36;;;;;;;34.72;5.28;;;11.30;88.70;;;;;;4940872;29;20047;-79
2022/06/10 04:10:05;;;;;;;34.63;5.10;;;11.30;88.60;;;;;;4954608;29;20051;-79
2022/06/10 04:12:33;;;;;;;38.42;5.72;;;11.30;88.50;;;;;;4951625;28;20062;-79
2022/06/10 04:15:00;;;;;;;38.17;5.22;;;11.40;88.50;;;;;;4946380;29;20059;-79
2022/06/10 04:17:28;;;;;;;35.38;5.22;;;11.40;88.40;;;;;;4955608;29;20051;-78
2022/06/10 04:19:57;;;;;;;36.40;5.63;;;11.50;88.40;;;;;;4952517;29;20565;-79
2022/06/10 04:22:27;;;;;;;30.33;4.95;;;11.60;88.40;;;;;;4942298;29;20246;-78
2022/06/10 04:24:55;;;;;;;44.40;5.30;;;11.60;88.30;;;;;;4954637;29;20046;-79
2022/06/10 04:27:23;;;;;;;40.15;4.97;;;11.50;88.20;;;;;;4952184;29;20055;-79
2022/06/10 04:29:50;;;;;;;40.88;5.15;;;11.50;88.20;;;;;;4955397;29;20385;-79
2022/06/10 04:32:18;;;;;;;42.70;5.35;;;11.40;88.30;;;;;;4953203;29;20486;-79
2022/06/10 04:34:46;;;;;;;50.42;6.30;;;11.40;88.50;;;;;;4954096;29;20485;-79
2022/06/10 04:37:13;;;;;;;39.15;5.00;;;11.50;88.50;;;;;;4955117;29;20512;-79
2022/06/10 04:39:41;;;;;;;37.00;5.40;;;11.50;88.50;;;;;;4949750;29;20502;-79
2022/06/10 04:42:09;;;;;;;35.20;5.45;;;11.60;88.50;;;;;;4953090;28;20074;-79
2022/06/10 04:44:36;;;;;;;33.75;4.90;;;11.70;88.40;;;;;;4952748;29;20062;-78
2022/06/10 04:47:06;;;;;;;44.17;5.93;;;11.80;88.30;;;;;;4953350;29;20051;-78
2022/06/10 04:49:36;;;;;;;29.75;4.43;;;11.80;88.10;;;;;;4949866;29;20520;-79
2022/06/10 04:52:04;;;;;;;29.70;5.20;;;11.90;87.90;;;;;;4946330;29;20046;-79
2022/06/10 04:54:32;;;;;;;28.25;4.72;;;11.90;87.80;;;;;;4950420;29;20047;-78
2022/06/10 04:56:59;;;;;;;39.65;5.28;;;11.90;87.70;;;;;;4949279;29;20059;-79
2022/06/10 04:59:27;;;;;;;42.17;5.38;;;11.90;87.60;;;;;;4958817;28;20052;-79
2022/06/10 05:01:55;;;;;;;32.08;4.93;;;11.80;87.70;;;;;;4933883;29;20070;-78
2022/06/10 05:04:23;;;;;;;39.60;5.15;;;11.80;87.70;;;;;;4954652;29;20062;-78
2022/06/10 05:06:50;;;;;;;34.58;5.13;;;11.90;87.70;;;;;;4953600;28;20051;-79
2022/06/10 05:09:18;;;;;;;36.58;4.75;;;11.90;87.70;;;;;;4945532;29;20051;-79
2022/06/10 05:11:47;;;;;;;37.92;5.30;;;12.00;87.60;;;;;;4951624;29;20066;-78
2022/06/10 05:14:14;;;;;;;33.95;5.03;;;12.00;87.50;;;;;;4954387;29;20047;-78
2022/06/10 05:16:42;;;;;;;33.10;5.00;;;12.00;87.40;;;;;;4955433;29;20054;-77
2022/06/10 05:19:10;;;;;;;34.38;4.93;;;12.10;87.30;;;;;;4954613;29;20048;-76
2022/06/10 05:21:37;;;;;;;34.00;4.93;;;12.10;87.30;;;;;;4955973;29;20054;-78
2022/06/10 05:24:05;;;;;;;28.60;4.68;;;12.10;87.20;;;;;;4953878;29;20127;-79
2022/06/10 05:26:33;;;;;;;34.28;5.97;;;12.20;87.10;;;;;;4953108;29;20059;-78
2022/06/10 05:29:01;;;;;;;35.55;5.03;;;12.20;87.00;;;;;;4954053;29;20054;-78
2022/06/10 05:31:29;;;;;;;38.20;5.35;;;12.30;86.90;;;;;;4952997;29;20500;-78
2022/06/10 05:36:43;;;;;;;34.72;5.05;;;12.50;86.80;;;;;;4948897;29;20055;-78
2022/06/10 05:39:11;;;;;;;34.20;4.53;;;12.50;86.40;;;;;;4953651;29;20047;-78
2022/06/10 05:44:26;;;;;;;36.65;5.60;;;12.60;85.80;;;;;;4949365;29;20058;-78
2022/06/10 05:46:54;;;;;;;34.80;5.50;;;12.50;85.90;;;;;;4945777;29;20047;-78
2022/06/10 05:49:23;;;;;;;28.20;4.32;;;12.60;86.00;;;;;;4954067;29;20044;-77
2022/06/10 05:51:50;;;;;;;38.80;5.20;;;12.80;86.00;;;;;;4948719;29;20060;-77
2022/06/10 05:54:19;;;;;;;35.30;4.97;;;12.90;85.80;;;;;;4945603;29;20052;-79
2022/06/10 05:56:47;;;;;;;31.15;4.82;;;13.00;85.50;;;;;;4942935;29;20527;-78
2022/06/10 05:59:14;;;;;;;33.90;4.43;;;13.10;85.30;;;;;;4947392;29;20048;-78
2022/06/10 06:01:42;;;;;;;37.40;4.78;;;13.00;85.00;;;;;;4942965;29;20051;-78
2022/06/10 06:04:11;;;;;;;26.88;4.43;;;12.90;84.90;;;;;;4950390;29;20054;-77
2022/06/10 06:06:40;;;;;;;39.10;5.07;;;12.90;85.00;;;;;;4946382;28;20436;-78
2022/06/10 06:09:13;;;;;;;34.45;4.72;;;12.90;84.80;;;;;;4943938;29;20059;-78
2022/06/10 06:11:48;;;;;;;25.13;4.22;;;13.00;84.90;;;;;;4947556;29;20043;-78
2022/06/10 06:14:18;;;;;;;30.92;4.75;;;13.20;84.80;;;;;;4945696;29;20047;-78
2022/06/10 06:16:53;;;;;;;30.30;5.20;;;13.30;84.60;;;;;;4944609;29;20047;-79
2022/06/10 06:19:22;;;;;;;28.27;4.70;;;13.60;84.10;;;;;;4948948;29;20054;-78
2022/06/10 06:21:49;;;;;;;29.73;5.05;;;13.80;82.80;;;;;;4951022;29;20043;-79
2022/06/10 06:24:17;;;;;;;31.85;5.00;;;13.80;82.20;;;;;;4943494;29;20673;-78
2022/06/10 06:26:45;;;;;;;31.58;4.40;;;13.90;81.90;;;;;;4944716;29;20050;-78
2022/06/10 06:29:14;;;;;;;24.50;4.00;;;13.90;81.50;;;;;;4950688;28;20515;-78
2022/06/10 06:31:41;;;;;;;31.95;4.90;;;13.80;80.80;;;;;;4948380;29;20043;-78
2022/06/10 06:34:09;;;;;;;23.63;3.53;;;13.80;80.80;;;;;;4951001;29;20047;-77
2022/06/10 06:36:42;;;;;;;31.13;4.78;;;13.90;80.80;;;;;;4953316;29;20400;-78
2022/06/10 06:39:10;;;;;;;31.13;4.37;;;13.90;80.60;;;;;;4948715;29;20489;-78
2022/06/10 06:41:38;;;;;;;35.10;5.55;;;14.00;80.40;;;;;;4952516;29;20667;-77
2022/06/10 06:44:09;;;;;;;26.35;4.10;;;14.20;80.10;;;;;;4953998;29;20051;-78
2022/06/10 06:46:40;;;;;;;28.00;4.15;;;14.30;79.50;;;;;;4951953;29;20050;-78
2022/06/10 06:49:13;;;;;;;38.85;6.45;;;14.30;79.00;;;;;;4937926;29;20416;-78
2022/06/10 06:51:40;;;;;;;31.02;4.25;;;14.20;79.00;;;;;;4953956;29;20489;-78
2022/06/10 06:54:09;;;;;;;27.92;5.00;;;14.20;79.30;;;;;;4949706;29;20046;-80
2022/06/10 06:56:38;;;;;;;27.65;4.47;;;14.20;79.40;;;;;;4945861;29;20062;-78
2022/06/10 06:59:06;;;;;;;32.88;5.32;;;14.10;79.70;;;;;;4950463;29;20044;-78
2022/06/10 07:01:35;;;;;;;32.60;4.63;;;14.20;79.80;;;;;;4949288;29;20060;-79
2022/06/10 07:04:05;;;;;;;30.08;4.22;;;14.30;79.80;;;;;;4951647;29;20059;-79
2022/06/10 07:06:35;;;;;;;32.55;4.50;;;14.30;79.90;;;;;;4952000;29;20062;-78
2022/06/10 07:09:03;;;;;;;31.58;4.28;;;14.40;79.70;;;;;;4948281;29;20066;-78
2022/06/10 07:11:32;;;;;;;29.92;4.30;;;14.40;79.60;;;;;;4951015;29;20393;-78
2022/06/10 07:14:00;;;;;;;33.20;4.50;;;14.60;79.30;;;;;;4949784;29;20054;-79
2022/06/10 07:16:28;;;;;;;29.27;4.20;;;14.70;79.10;;;;;;4953594;29;20039;-78
2022/06/10 07:18:56;;;;;;;32.83;4.50;;;14.90;78.80;;;;;;4949372;28;20058;-79
2022/06/10 07:21:24;;;;;;;34.95;4.28;;;15.00;77.60;;;;;;4945023;29;20051;-79
2022/06/10 07:23:51;;;;;;;28.50;4.07;;;15.10;77.30;;;;;;4953254;29;20055;-79
2022/06/10 07:26:19;;;;;;;22.58;3.67;;;15.10;77.50;;;;;;4953733;29;20051;-78
2022/06/10 07:28:47;;;;;;;39.10;5.78;;;15.20;76.70;;;;;;4953856;28;20070;-78
2022/06/10 07:31:15;;;;;;;33.97;4.65;;;15.40;76.30;;;;;;4954128;29;20051;-79
2022/06/10 07:33:42;;;;;;;31.75;4.68;;;15.60;75.50;;;;;;4953644;29;20066;-77
2022/06/10 07:36:10;;;;;;;36.97;4.60;;;15.80;75.30;;;;;;4953269;29;20051;-77
2022/06/10 07:38:38;;;;;;;29.52;5.00;;;15.80;74.20;;;;;;4951704;29;20058;-77
2022/06/10 07:43:52;;;;;;;30.98;4.55;;;15.80;73.50;;;;;;4966249;28;20070;-78
2022/06/10 07:46:22;;;;;;;22.45;4.15;;;15.90;73.20;;;;;;4951979;29;20043;-77
2022/06/10 07:48:50;;;;;;;27.45;4.03;;;15.90;73.10;;;;;;4934244;29;20048;-78
2022/06/10 07:51:19;;;;;;;24.55;5.05;;;15.90;73.00;;;;;;4933553;29;20059;-78
2022/06/10 07:53:47;;;;;;;28.77;4.13;;;15.90;72.40;;;;;;4917450;29;20044;-77
2022/06/10 07:56:16;;;;;;;26.85;4.00;;;15.90;72.40;;;;;;4942203;29;20048;-78
2022/06/10 07:58:45;;;;;;;28.95;4.43;;;16.00;72.50;;;;;;4953216;29;20043;-78
2022/06/10 08:01:13;;;;;;;29.30;4.22;;;16.00;72.60;;;;;;4950505;29;20386;-78
2022/06/10 08:03:48;;;;;;;31.38;4.72;;;16.00;72.40;;;;;;4952824;28;20485;-78
2022/06/10 08:06:18;;;;;;;26.95;4.03;;;16.00;72.10;;;;;;4952799;29;20054;-78
2022/06/10 08:08:45;;;;;;;29.20;5.13;;;16.00;72.50;;;;;;4952020;29;20440;-78
2022/06/10 08:11:17;;;;;;;28.17;5.15;;;16.00;72.60;;;;;;4951494;29;20039;-78
2022/06/10 08:13:45;;;;;;;31.33;4.90;;;16.10;72.50;;;;;;4952304;28;20489;-78
2022/06/10 08:16:14;;;;;;;27.10;4.88;;;16.20;72.40;;;;;;4953219;28;20054;-77
2022/06/10 08:18:42;;;;;;;29.23;4.43;;;16.30;71.80;;;;;;4952566;28;20404;-78
2022/06/10 08:24:03;;;;;;;28.35;4.07;;;16.70;70.80;;;;;;4951761;29;20059;-79
2022/06/10 08:26:30;;;;;;;28.08;4.50;;;16.90;69.70;;;;;;4951954;28;20485;-77
2022/06/10 08:29:00;;;;;;;19.13;3.20;;;16.90;69.50;;;;;;4952257;29;20058;-78
2022/06/10 08:31:28;;;;;;;31.67;4.05;;;16.90;68.40;;;;;;4953147;29;20051;-77
2022/06/10 08:33:57;;;;;;;19.48;4.18;;;16.80;68.90;;;;;;4953385;29;20058;-77
2022/06/10 08:36:25;;;;;;;29.83;4.85;;;16.80;69.40;;;;;;4953144;29;20055;-77
2022/06/10 08:38:52;;;;;;;28.17;4.30;;;16.60;69.50;;;;;;4951795;28;20051;-77
2022/06/10 08:41:33;;;;;;;30.02;4.50;;;16.60;70.10;;;;;;4951828;28;20067;-78
2022/06/10 08:44:34;;;;;;;24.55;4.03;;;16.50;70.00;;;;;;4943246;29;20043;-77
2022/06/10 08:47:43;;;;;;;24.67;3.67;;;16.50;69.50;;;;;;4939719;29;20613;-77
2022/06/10 08:50:15;;;;;;;24.70;3.95;;;16.40;69.50;;;;;;4952373;29;20051;-80
2022/06/10 08:53:16;;;;;;;17.52;3.03;;;16.40;69.40;;;;;;4953663;28;20062;-77
2022/06/10 08:56:10;;;;;;;21.83;3.40;;;16.40;69.70;;;;;;4948584;29;20043;-77
2022/06/10 08:58:57;;;;;;;23.35;3.53;;;16.30;70.80;;;;;;4946320;29;20070;-78
2022/06/10 09:01:28;;;;;;;20.23;3.33;;;16.20;71.90;;;;;;4956143;29;20043;-77
2022/06/10 09:04:28;;;;;;;26.67;4.28;;;16.10;73.00;;;;;;4955131;29;20047;-77
2022/06/10 09:07:00;;;;;;;25.55;3.67;;;16.10;73.40;;;;;;4955668;28;20084;-78
2022/06/10 09:09:29;;;;;;;20.23;3.15;;;16.00;73.60;;;;;;4954711;29;20055;-78
2022/06/10 09:12:51;;;;;;;14.60;2.85;;;16.00;73.40;;;;;;4955368;28;20049;-77
2022/06/10 09:15:20;;;;;;;14.57;3.33;;;16.00;73.50;;;;;;4954137;29;20047;-76
2022/06/10 09:17:55;;;;;;;27.88;4.60;;;16.20;73.40;;;;;;4955855;29;20051;-78
2022/06/10 09:20:29;;;;;;;28.10;4.40;;;16.20;73.50;;;;;;4954547;28;20067;-78
2022/06/10 09:23:02;;;;;;;22.55;4.00;;;16.30;73.40;;;;;;4944579;28;20075;-78
2022/06/10 09:25:39;;;;;;;25.45;3.83;;;16.50;73.40;;;;;;4940993;29;20485;-78
2022/06/10 09:28:07;;;;;;;24.77;3.85;;;16.70;73.10;;;;;;4950520;28;20087;-78
2022/06/10 09:31:15;;;;;;;25.02;4.05;;;16.90;72.60;;;;;;4948396;28;20070;-78
2022/06/10 09:33:49;;;;;;;20.90;3.55;;;17.10;71.80;;;;;;4887404;29;20060;-78
2022/06/10 09:36:17;;;;;;;25.25;3.88;;;17.20;71.50;;;;;;4862874;29;20072;-78
2022/06/10 09:39:01;;;;;;;19.40;3.72;;;17.30;71.00;;;;;;4862558;29;20107;-78
2022/06/10 09:41:58;;;;;;;23.60;3.75;;;17.50;70.80;;;;;;4875153;29;20125;-77
2022/06/10 09:44:46;;;;;;;20.42;3.58;;;17.70;70.90;;;;;;4846952;29;20048;-78
2022/06/10 09:47:28;;;;;;;24.55;4.20;;;18.00;70.60;;;;;;4851153;29;20531;-78
2022/06/10 09:50:08;;;;;;;29.48;4.00;;;18.10;69.50;;;;;;4858506;29;20068;-78
2022/06/10 09:52:40;;;;;;;19.55;3.65;;;18.00;68.70;;;;;;4868530;29;20053;-78
2022/06/10 09:55:26;;;;;;;23.50;3.70;;;17.80;68.60;;;;;;4880643;29;20044;-76
2022/06/10 09:58:04;;;;;;;30.70;4.00;;;17.80;68.60;;;;;;4849825;29;20053;-77
2022/06/10 10:00:51;;;;;;;22.83;3.47;;;17.70;68.90;;;;;;4875859;29;20060;-77
2022/06/10 10:03:45;;;;;;;23.95;3.65;;;17.80;68.70;;;;;;4876828;29;20049;-78
2022/06/10 10:06:25;;;;;;;28.23;3.97;;;17.90;68.60;;;;;;4846157;29;20061;-77
2022/06/10 10:08:59;;;;;;;19.58;3.50;;;17.90;68.60;;;;;;4935581;29;20059;-77
2022/06/10 10:11:38;;;;;;;25.17;3.90;;;17.80;68.10;;;;;;4953551;29;20058;-77
2022/06/10 10:14:35;;;;;;;22.33;3.97;;;17.80;68.30;;;;;;4955362;29;20047;-77
2022/06/10 10:17:54;;;;;;;19.73;3.40;;;17.80;69.00;;;;;;4875974;29;20092;-77
2022/06/10 10:20:40;;;;;;;13.70;2.90;;;18.20;66.80;;;;;;4838841;29;20058;-77
2022/06/10 10:23:18;;;;;;;23.00;4.38;;;18.50;64.90;;;;;;4839799;29;20523;-77
2022/06/10 10:25:47;;;;;;;19.25;3.42;;;18.70;64.90;;;;;;4830515;29;20124;-77
2022/06/10 10:28:33;;;;;;;18.83;3.38;;;19.10;64.10;;;;;;4839609;29;20167;-77
2022/06/10 10:31:22;;;;;;;19.27;3.10;;;19.70;62.80;;;;;;4839845;29;20523;-77
2022/06/10 10:33:57;;;;;;;13.98;3.25;;;20.00;61.50;;;;;;4839546;29;20061;-77
2022/06/10 10:36:28;;;;;;;29.60;3.97;;;20.10;58.30;;;;;;4839340;29;20064;-77
2022/06/10 10:38:55;;;;;;;17.45;2.10;;;20.10;58.30;;;;;;4839435;29;20062;-78
2022/06/10 10:41:26;;;;;;;15.98;3.05;;;20.00;57.60;;;;;;4808703;29;20514;-77
2022/06/10 10:43:58;;;;;;;10.98;2.58;;;19.70;57.40;;;;;;4828948;29;20077;-79
2022/06/10 10:46:42;;;;;;;24.63;3.78;;;19.30;57.00;;;;;;4839604;29;20054;-78
2022/06/10 10:49:24;;;;;;;13.32;2.95;;;19.00;58.70;;;;;;4820747;29;20548;-77
2022/06/10 10:51:53;;;;;;;16.77;2.75;;;18.90;59.80;;;;;;4872060;29;20075;-73
2022/06/10 10:54:33;;;;;;;16.13;2.63;;;18.90;59.80;;;;;;4917624;29;20058;-82
2022/06/10 10:57:12;;;;;;;19.08;3.13;;;19.00;59.90;;;;;;4953770;29;20051;-79
2022/06/10 10:59:42;;;;;;;17.48;3.00;;;19.20;59.70;;;;;;4953393;29;20065;-78
2022/06/10 11:02:31;;;;;;;20.08;3.10;;;19.30;59.40;;;;;;4953838;29;20404;-75
2022/06/10 11:05:25;;;;;;;14.30;2.63;;;19.30;59.00;;;;;;4953409;29;20050;-81
2022/06/10 11:08:04;;;;;;;14.07;2.03;;;19.30;58.80;;;;;;4954175;29;20051;-80
2022/06/10 11:10:37;;;;;;;15.60;2.72;;;19.50;56.10;;;;;;4952344;29;20054;-79
2022/06/10 11:13:07;;;;;;;20.17;3.08;;;19.60;55.90;;;;;;4952894;29;20051;-79
2022/06/10 11:15:38;;;;;;;;;;;19.80;57.20;;;;;;4954827;28;20501;-74
2022/06/10 11:18:13;;;;;;;13.95;2.40;;;20.10;53.60;;;;;;4954409;29;19929;-74
2022/06/10 11:20:41;;;;;;;11.93;2.25;;;20.30;53.10;;;;;;4952829;29;20043;-74
2022/06/10 11:23:27;;;;;;;13.32;2.40;;;20.50;52.80;;;;;;4953362;29;20058;-74
2022/06/10 11:26:14;;;;;;;14.02;2.58;;;20.80;52.40;;;;;;4953608;29;20413;-74
2022/06/10 11:28:44;;;;;;;18.00;2.75;;;20.90;52.40;;;;;;4934784;29;20051;-74
2022/06/10 11:31:23;;;;;;;10.75;2.40;;;21.10;50.70;;;;;;4936560;29;20047;-75
2022/06/10 11:33:55;;;;;;;12.82;2.33;;;21.10;48.30;;;;;;4945933;29;20074;-75
2022/06/10 11:36:35;;;;;;;17.75;2.55;;;21.00;47.60;;;;;;4935196;29;20627;-76
2022/06/10 11:39:17;;;;;;;10.95;2.22;;;21.30;49.00;;;;;;4949037;29;20054;-74
2022/06/10 11:42:08;;;;;;;15.05;2.78;;;21.70;47.10;;;;;;4954420;29;20043;-74
2022/06/10 11:44:44;;;;;;;18.55;2.60;;;21.50;45.60;;;;;;4940133;29;20501;-74
2022/06/10 11:47:44;;;;;;;16.42;2.55;;;21.00;46.60;;;;;;4941694;29;20048;-74
2022/06/10 11:50:25;;;;;;;12.40;2.72;;;20.80;48.80;;;;;;4908135;29;20066;-75
2022/06/10 11:53:06;;;;;;;22.45;3.00;;;21.00;48.50;;;;;;4951531;29;20493;-73
2022/06/10 11:55:40;;;;;;;14.65;2.25;;;21.30;49.00;;;;;;4952728;29;20055;-78
2022/06/10 12:01:20;;;;;;;9.82;2.03;;;22.20;46.00;;;;;;4960399;28;20047;-77
2022/06/10 12:04:14;;;;;;;17.05;2.58;;;22.30;44.10;;;;;;4943589;29;20043;-77
2022/06/10 12:06:51;;;;;;;11.90;2.60;;;22.50;44.30;;;;;;4948457;29;20048;-78
2022/06/10 12:09:45;;;;;;;17.02;2.42;;;22.70;43.20;;;;;;4948731;29;20489;-77
2022/06/10 12:12:16;;;;;;;12.32;2.38;;;22.70;43.60;;;;;;4950341;29;20047;-78
2022/06/10 12:14:54;;;;;;;12.75;2.00;;;22.90;42.90;;;;;;4949983;29;20055;-77
2022/06/10 12:17:35;;;;;;;9.85;2.33;;;22.70;43.20;;;;;;4937908;29;20043;-78
2022/06/10 12:20:12;;;;;;;18.52;2.50;;;22.60;42.90;;;;;;4935162;29;20059;-77
2022/06/10 12:22:40;;;;;;;9.40;3.00;;;22.60;43.50;;;;;;4952619;28;20051;-79
2022/06/10 12:25:18;;;;;;;18.80;3.20;;;22.90;43.10;;;;;;4953180;29;20404;-78
2022/06/10 12:28:18;;;;;;;13.38;2.95;;;23.20;42.60;;;;;;4953312;28;20054;-77
2022/06/10 12:30:53;;;;;;;13.15;2.50;;;23.50;43.10;;;;;;4956052;29;20055;-78
2022/06/10 12:33:26;;;;;;;19.50;3.03;;;23.80;42.10;;;;;;4957131;29;20051;-78
2022/06/10 12:35:54;;;;;;;;;;;24.00;41.70;;;;;;4955931;29;20053;-79
2022/06/10 12:38:29;;;;;;;19.08;2.85;;;24.20;41.20;;;;;;4955245;28;19922;-78
2022/06/10 12:41:04;;;;;;;8.65;2.58;;;23.80;39.90;;;;;;4956709;29;20055;-78
2022/06/10 12:43:38;;;;;;;12.18;2.45;;;23.30;41.70;;;;;;4953826;28;20051;-77
2022/06/10 12:46:22;;;;;;;24.45;3.10;;;23.50;40.80;;;;;;4956038;29;20062;-80
2022/06/10 12:48:50;;;;;;;9.50;2.28;;;23.50;40.90;;;;;;4954057;29;20845;-76
2022/06/10 12:51:36;;;;;;;12.00;2.72;;;23.60;40.90;;;;;;4954591;29;20489;-77
2022/06/10 12:54:24;;;;;;;14.77;3.40;;;23.50;40.20;;;;;;4954037;29;20051;-77
2022/06/10 12:57:23;;;;;;;10.32;2.50;;;23.20;41.80;;;;;;4956029;29;20667;-77
2022/06/10 13:00:17;;;;;;;13.98;1.83;;;23.30;41.70;;;;;;4956809;29;20504;-77
2022/06/10 13:02:48;;;;;;;15.25;2.65;;;24.00;38.80;;;;;;4956009;29;20058;-77
2022/06/10 13:05:20;;;;;;;9.70;1.98;;;24.40;37.90;;;;;;4954923;29;20524;-77
2022/06/10 13:07:49;;;;;;;14.38;2.13;;;24.90;37.20;;;;;;4955273;29;20193;-77
2022/06/10 13:10:30;;;;;;;11.68;2.10;;;25.30;37.10;;;;;;4963080;28;20047;-77
2022/06/10 13:13:17;;;;;;;15.93;2.00;;;25.60;36.30;;;;;;4954942;29;20059;-77
2022/06/10 13:15:53;;;;;;;11.02;2.63;;;25.50;34.60;;;;;;4953738;29;20062;-77
2022/06/10 13:18:29;;;;;;;15.20;2.22;;;25.20;35.80;;;;;;4953811;29;20047;-77
2022/06/10 13:21:09;;;;;;;;;;;25.30;36.10;;;;;;4955946;29;20055;-77
2022/06/10 13:24:00;;;;;;;11.95;2.58;;;25.40;35.60;;;;;;4954815;29;19922;-77
2022/06/10 13:26:34;;;;;;;14.80;2.00;;;25.70;35.40;;;;;;4953016;29;20058;-77
2022/06/10 13:29:17;;;;;;;31.20;3.00;;;25.80;35.40;;;;;;4949211;29;20063;-77
2022/06/10 13:31:52;;;;;;;16.02;1.73;;;25.80;35.40;;;;;;4955751;29;20342;-80
2022/06/10 13:34:30;;;;;;;17.35;2.80;;;25.60;34.90;;;;;;4942859;29;20410;-77
2022/06/10 13:37:02;;;;;;;8.68;1.77;;;25.30;35.50;;;;;;4933271;29;20059;-78
2022/06/10 13:39:42;;;;;;;6.50;1.88;;;24.80;35.20;;;;;;4948050;28;20055;-77